Time,TemperatureF,DewpointF,PressureIn,WindDirection,WindDirectionDegrees,WindSpeedMPH,WindSpeedGustMPH,Humidity,HourlyPrecipIn,Conditions,Clouds,dailyrainin,SoftwareType,DateUTC
2013-03-31 00:04:00,50.8,43.0,30.06,North,10,0.0,5.0,74,0.00,,,0.00,weatherlink.com 1.10,2013-03-31 07:04:00,
2013-03-31 00:19:00,50.3,42.0,30.06,North,9,2.0,4.0,74,0.00,,,0.00,weatherlink.com 1.10,2013-03-31 07:19:00,
2013-03-31 00:34:00,50.1,42.0,30.06,North,5,2.0,4.0,74,0.00,,,0.00,weatherlink.com 1.10,2013-03-31 07:34:00,
2013-03-31 00:49:00,50.0,42.0,30.06,NNW,336,2.0,4.0,74,0.00,,,0.00,weatherlink.com 1.10,2013-03-31 07:49:00,
2013-03-31 01:04:00,49.8,42.0,30.06,NNW,342,3.0,5.0,75,0.00,,,0.00,weatherlink.com 1.10,2013-03-31 08:04:00,
2013-03-31 01:19:00,49.5,42.0,30.06,North,5,1.0,5.0,75,0.00,,,0.00,weatherlink.com 1.10,2013-03-31 08:19:00,
2013-03-31 01:34:00,49.4,42.0,30.05,NNW,348,2.0,6.0,76,0.00,,,0.00,weatherlink.com 1.10,2013-03-31 08:34:00,
2013-03-31 01:49:00,49.7,42.0,30.05,NNW,327,2.0,7.0,76,0.00,,,0.00,weatherlink.com 1.10,2013-03-31 08:49:00,
2013-03-31 02:04:00,49.8,42.0,30.05,NNW,336,1.0,6.0,75,0.00,,,0.00,weatherlink.com 1.10,2013-03-31 09:04:00,
2013-03-31 02:19:00,49.7,42.0,30.04,NW,326,2.0,6.0,75,0.00,,,0.00,weatherlink.com 1.10,2013-03-31 09:19:00,
2013-03-31 02:34:00,50.2,42.0,30.04,NNE,19,2.0,10.0,74,0.00,,,0.00,weatherlink.com 1.10,2013-03-31 09:34:00,
2013-03-31 02:49:00,50.3,42.0,30.03,NNE,13,3.0,7.0,73,0.00,,,0.00,weatherlink.com 1.10,2013-03-31 09:49:00,
2013-03-31 03:04:00,50.3,42.0,30.03,NNE,24,2.0,8.0,74,0.00,,,0.00,weatherlink.com 1.10,2013-03-31 10:04:00,
2013-03-31 03:19:00,49.7,42.0,30.03,NNE,26,3.0,6.0,74,0.00,,,0.00,weatherlink.com 1.10,2013-03-31 10:19:00,
2013-03-31 03:34:00,49.3,42.0,30.02,NNE,22,3.0,7.0,76,0.00,,,0.00,weatherlink.com 1.10,2013-03-31 10:34:00,
2013-03-31 03:49:00,48.7,42.0,30.02,NNW,347,2.0,6.0,77,0.00,,,0.00,weatherlink.com 1.10,2013-03-31 10:49:00,
2013-03-31 04:04:00,48.0,42.0,30.02,NNW,346,3.0,5.0,79,0.00,,,0.00,weatherlink.com 1.10,2013-03-31 11:04:00,
2013-03-31 04:19:00,47.6,42.0,30.02,North,355,3.0,6.0,81,0.00,,,0.00,weatherlink.com 1.10,2013-03-31 11:19:00,
2013-03-31 04:35:00,47.6,42.0,30.02,North,360,1.0,6.0,81,0.00,,,0.00,weatherlink.com 1.10,2013-03-31 11:35:00,
2013-03-31 04:50:00,47.6,42.0,30.02,NNE,13,6.0,6.0,82,0.00,,,0.00,weatherlink.com 1.10,2013-03-31 11:50:00,
2013-03-31 05:05:00,47.2,42.0,30.02,NW,317,0.0,3.0,83,0.00,,,0.00,weatherlink.com 1.10,2013-03-31 12:05:00,
2013-03-31 05:20:00,46.9,42.0,30.01,NNW,333,1.0,4.0,83,0.00,,,0.00,weatherlink.com 1.10,2013-03-31 12:20:00,
2013-03-31 05:35:00,46.7,42.0,30.01,NNW,346,1.0,5.0,83,0.00,,,0.00,weatherlink.com 1.10,2013-03-31 12:35:00,
2013-03-31 05:50:00,46.4,42.0,30.01,NNE,15,0.0,2.0,83,0.00,,,0.00,weatherlink.com 1.10,2013-03-31 12:50:00,
2013-03-31 06:05:00,46.3,42.0,30.02,NNE,26,0.0,5.0,84,0.00,,,0.00,weatherlink.com 1.10,2013-03-31 13:05:00,
2013-03-31 06:20:00,46.3,41.0,30.02,NE,49,0.0,3.0,83,0.00,,,0.00,weatherlink.com 1.10,2013-03-31 13:20:00,
2013-03-31 06:35:00,45.9,41.0,30.02,NE,38,0.0,5.0,84,0.00,,,0.00,weatherlink.com 1.10,2013-03-31 13:35:00,
2013-03-31 06:50:00,45.4,41.0,30.02,NE,38,1.0,3.0,85,0.00,,,0.00,weatherlink.com 1.10,2013-03-31 13:50:00,
2013-03-31 07:05:00,45.1,41.0,30.03,NE,38,0.0,0.0,86,0.00,,,0.00,weatherlink.com 1.10,2013-03-31 14:05:00,
2013-03-31 07:20:00,44.9,41.0,30.03,NNE,32,1.0,2.0,87,0.00,,,0.00,weatherlink.com 1.10,2013-03-31 14:20:00,
2013-03-31 07:35:00,44.8,41.0,30.03,NNW,340,1.0,3.0,87,0.00,,,0.00,weatherlink.com 1.10,2013-03-31 14:35:00,
2013-03-31 07:51:00,45.1,42.0,30.03,NNW,340,0.0,2.0,87,0.00,,,0.00,weatherlink.com 1.10,2013-03-31 14:51:00,
2013-03-31 08:05:00,45.8,42.0,30.03,North,5,0.0,0.0,87,0.00,,,0.00,weatherlink.com 1.10,2013-03-31 15:05:00,
2013-03-31 08:20:00,47.1,43.0,30.03,ENE,57,1.0,4.0,84,0.00,,,0.00,weatherlink.com 1.10,2013-03-31 15:20:00,
2013-03-31 08:35:00,48.7,43.0,30.02,NE,40,1.0,5.0,81,0.00,,,0.00,weatherlink.com 1.10,2013-03-31 15:35:00,
2013-03-31 08:50:00,49.9,44.0,30.02,North,5,4.0,6.0,79,0.00,,,0.00,weatherlink.com 1.10,2013-03-31 15:50:00,
2013-03-31 09:05:00,50.7,44.0,30.02,North,360,0.0,4.0,77,0.00,,,0.00,weatherlink.com 1.10,2013-03-31 16:05:00,
2013-03-31 09:20:00,52.3,44.0,30.02,NNE,24,3.0,7.0,72,0.00,,,0.00,weatherlink.com 1.10,2013-03-31 16:20:00,
2013-03-31 09:35:00,53.8,44.0,30.02,NNE,33,4.0,9.0,69,0.00,,,0.00,weatherlink.com 1.10,2013-03-31 16:35:00,
2013-03-31 09:50:00,54.8,44.0,30.02,NNE,18,7.0,11.0,67,0.00,,,0.00,weatherlink.com 1.10,2013-03-31 16:50:00,
2013-03-31 10:06:00,55.5,44.0,30.01,NE,35,5.0,7.0,66,0.00,,,0.00,weatherlink.com 1.10,2013-03-31 17:06:00,
2013-03-31 10:20:00,56.3,46.0,30.01,NNW,336,3.0,8.0,68,0.00,,,0.00,weatherlink.com 1.10,2013-03-31 17:20:00,
2013-03-31 10:35:00,56.4,46.0,30.01,West,278,6.0,7.0,69,0.00,,,0.00,weatherlink.com 1.10,2013-03-31 17:35:00,
2013-03-31 10:50:00,56.9,46.0,30.01,NW,308,9.0,10.0,68,0.00,,,0.00,weatherlink.com 1.10,2013-03-31 17:50:00,
2013-03-31 11:05:00,57.6,47.0,30.01,WNW,292,8.0,10.0,67,0.00,,,0.00,weatherlink.com 1.10,2013-03-31 18:05:00,
2013-03-31 11:20:00,58.7,46.0,30.01,NW,305,4.0,8.0,64,0.00,,,0.00,weatherlink.com 1.10,2013-03-31 18:20:00,
2013-03-31 11:35:00,59.3,47.0,30.01,WNW,285,5.0,10.0,63,0.00,,,0.00,weatherlink.com 1.10,2013-03-31 18:35:00,
2013-03-31 11:50:00,59.9,47.0,30.01,West,261,4.0,10.0,62,0.00,,,0.00,weatherlink.com 1.10,2013-03-31 18:50:00,
2013-03-31 12:05:00,60.4,46.0,30.00,WNW,294,6.0,10.0,60,0.00,,,0.00,weatherlink.com 1.10,2013-03-31 19:05:00,
2013-03-31 12:20:00,61.3,47.0,30.00,WNW,296,7.0,11.0,59,0.00,,,0.00,weatherlink.com 1.10,2013-03-31 19:20:00,
2013-03-31 12:36:00,61.4,47.0,30.00,WNW,298,8.0,11.0,60,0.00,,,0.00,weatherlink.com 1.10,2013-03-31 19:36:00,
2013-03-31 12:50:00,61.2,47.0,30.00,WSW,253,4.0,11.0,60,0.00,,,0.00,weatherlink.com 1.10,2013-03-31 19:50:00,
2013-03-31 13:06:00,61.3,47.0,29.99,NW,306,6.0,10.0,60,0.00,,,0.00,weatherlink.com 1.10,2013-03-31 20:06:00,
2013-03-31 13:21:00,61.2,47.0,29.99,West,278,4.0,11.0,60,0.00,,,0.00,weatherlink.com 1.10,2013-03-31 20:21:00,
2013-03-31 13:36:00,61.4,48.0,29.98,NW,310,8.0,9.0,61,0.00,,,0.00,weatherlink.com 1.10,2013-03-31 20:36:00,
2013-03-31 13:51:00,61.5,47.0,29.98,NW,304,9.0,10.0,60,0.00,,,0.00,weatherlink.com 1.10,2013-03-31 20:51:00,
2013-03-31 14:36:00,62.1,48.0,29.96,West,271,5.0,9.0,60,0.00,,,0.00,weatherlink.com 1.10,2013-03-31 21:36:00,
2013-03-31 14:51:00,62.5,48.0,29.96,WNW,300,8.0,10.0,59,0.00,,,0.00,weatherlink.com 1.10,2013-03-31 21:51:00,
2013-03-31 15:06:00,62.8,48.0,29.95,WNW,284,6.0,11.0,58,0.00,,,0.00,weatherlink.com 1.10,2013-03-31 22:06:00,
2013-03-31 15:21:00,63.1,48.0,29.94,WNW,299,12.0,12.0,58,0.00,,,0.00,weatherlink.com 1.10,2013-03-31 22:21:00,
2013-03-31 15:36:00,63.3,48.0,29.94,WNW,292,8.0,12.0,57,0.00,,,0.00,weatherlink.com 1.10,2013-03-31 22:36:00,
2013-03-31 16:06:00,64.3,48.0,29.93,WNW,290,8.0,12.0,56,0.00,,,0.00,weatherlink.com 1.10,2013-03-31 23:06:00,
2013-03-31 16:21:00,64.5,48.0,29.92,WNW,285,6.0,11.0,55,0.00,,,0.00,weatherlink.com 1.10,2013-03-31 23:21:00,
2013-03-31 16:51:00,65.0,48.0,29.91,West,263,4.0,10.0,54,0.00,,,0.00,weatherlink.com 1.10,2013-03-31 23:51:00,
2013-03-31 17:06:00,64.8,47.0,29.91,WNW,303,7.0,10.0,52,0.00,,,0.00,weatherlink.com 1.10,2013-04-01 00:06:00,
2013-03-31 17:36:00,64.9,46.0,29.91,West,273,7.0,9.0,50,0.00,,,0.00,weatherlink.com 1.10,2013-04-01 00:36:00,
2013-03-31 17:51:00,64.8,46.0,29.91,WNW,290,4.0,10.0,50,0.00,,,0.00,weatherlink.com 1.10,2013-04-01 00:51:00,
2013-03-31 18:06:00,64.9,46.0,29.90,WNW,294,8.0,8.0,51,0.00,,,0.00,weatherlink.com 1.10,2013-04-01 01:06:00,
2013-03-31 18:21:00,63.9,45.0,29.90,WNW,303,5.0,9.0,51,0.00,,,0.00,weatherlink.com 1.10,2013-04-01 01:21:00,
2013-03-31 18:36:00,63.1,46.0,29.90,WNW,296,6.0,8.0,54,0.00,,,0.00,weatherlink.com 1.10,2013-04-01 01:36:00,
2013-03-31 19:06:00,61.7,46.0,29.90,NW,308,4.0,9.0,57,0.00,,,0.00,weatherlink.com 1.10,2013-04-01 02:06:00,
2013-03-31 19:21:00,61.0,46.0,29.90,NW,305,5.0,7.0,58,0.00,,,0.00,weatherlink.com 1.10,2013-04-01 02:21:00,
2013-03-31 19:36:00,60.2,46.0,29.90,NW,306,4.0,6.0,59,0.00,,,0.00,weatherlink.com 1.10,2013-04-01 02:36:00,
2013-03-31 19:51:00,59.4,46.0,29.90,WNW,289,3.0,8.0,62,0.00,,,0.00,weatherlink.com 1.10,2013-04-01 02:51:00,
2013-03-31 20:06:00,58.7,46.0,29.90,WNW,301,3.0,7.0,63,0.00,,,0.00,weatherlink.com 1.10,2013-04-01 03:06:00,
2013-03-31 20:21:00,58.1,46.0,29.90,NW,312,3.0,6.0,64,0.00,,,0.00,weatherlink.com 1.10,2013-04-01 03:21:00,
2013-03-31 20:36:00,57.5,45.0,29.91,WNW,297,1.0,6.0,63,0.00,,,0.00,weatherlink.com 1.10,2013-04-01 03:36:00,
2013-03-31 20:51:00,56.9,44.0,29.91,NW,313,2.0,7.0,62,0.00,,,0.00,weatherlink.com 1.10,2013-04-01 03:51:00,
2013-03-31 21:06:00,56.6,43.0,29.91,NW,313,2.0,6.0,60,0.00,,,0.00,weatherlink.com 1.10,2013-04-01 04:06:00,
2013-03-31 21:21:00,56.3,43.0,29.92,NW,318,3.0,5.0,61,0.00,,,0.00,weatherlink.com 1.10,2013-04-01 04:21:00,
2013-03-31 21:36:00,55.9,42.0,29.92,WNW,285,2.0,4.0,61,0.00,,,0.00,weatherlink.com 1.10,2013-04-01 04:36:00,
2013-03-31 21:53:00,55.3,43.0,29.93,WNW,285,0.0,2.0,63,0.00,,,0.00,weatherlink.com 1.10,2013-04-01 04:53:00,
2013-03-31 22:06:00,54.6,43.0,29.93,WNW,285,0.0,1.0,65,0.00,,,0.00,weatherlink.com 1.10,2013-04-01 05:06:00,
2013-03-31 22:21:00,53.9,43.0,29.93,WNW,285,0.0,0.0,68,0.00,,,0.00,weatherlink.com 1.10,2013-04-01 05:21:00,
2013-03-31 22:36:00,53.2,43.0,29.93,WNW,285,0.0,0.0,69,0.00,,,0.00,weatherlink.com 1.10,2013-04-01 05:36:00,
2013-03-31 22:51:00,52.7,44.0,29.94,WNW,285,0.0,0.0,71,0.00,,,0.00,weatherlink.com 1.10,2013-04-01 05:51:00,
2013-03-31 23:06:00,52.1,43.0,29.94,WNW,285,0.0,0.0,72,0.00,,,0.00,weatherlink.com 1.10,2013-04-01 06:06:00,
2013-03-31 23:21:00,51.6,44.0,29.94,WNW,285,1.0,2.0,75,0.00,,,0.00,weatherlink.com 1.10,2013-04-01 06:21:00,
2013-03-31 23:36:00,51.0,44.0,29.95,WNW,285,0.0,2.0,78,0.00,,,0.00,weatherlink.com 1.10,2013-04-01 06:36:00,
2013-03-31 23:51:00,50.6,44.0,29.95,WNW,285,2.0,2.0,79,0.00,,,0.00,weatherlink.com 1.10,2013-04-01 06:51:00,